Time;durP1;ratioP1;P1;durP2;ratioP2;P2;SDS_P1;SDS_P2;PMS_P1;PMS_P2;Temp;Humidity;BMP_temperature;BMP_pressure;BME280_temperature;BME280_humidity;BME280_pressure;Samples;Min_cycle;Max_cycle;Signal;HPM_P1;HPM_P2
2022/02/25 00:00:53;;;;;;;30.63;15.95;;;7.10;99.90;;;;;;6242341;23;20486;-73
2022/02/25 00:03:18;;;;;;;33.97;15.05;;;7.10;99.90;;;;;;6244082;22;20090;-73
2022/02/25 00:05:44;;;;;;;31.00;14.98;;;7.00;99.90;;;;;;6243797;22;20435;-73
2022/02/25 00:08:10;;;;;;;30.70;15.32;;;6.90;99.90;;;;;;6242075;23;20008;-73
2022/02/25 00:10:37;;;;;;;26.65;15.13;;;6.90;99.90;;;;;;6243653;23;20016;-73
2022/02/25 00:13:03;;;;;;;29.00;14.68;;;6.90;99.90;;;;;;6243924;22;20024;-73
2022/02/25 00:15:29;;;;;;;30.25;14.77;;;6.90;99.90;;;;;;6243825;22;20004;-73
2022/02/25 00:17:55;;;;;;;27.13;13.63;;;6.90;99.90;;;;;;6243760;22;20305;-73
2022/02/25 00:20:21;;;;;;;23.63;12.35;;;6.80;99.90;;;;;;6242298;23;20008;-73
2022/02/25 00:22:47;;;;;;;34.10;13.65;;;6.80;99.90;;;;;;6243907;22;20090;-73
2022/02/25 00:25:13;;;;;;;23.73;13.30;;;6.80;99.90;;;;;;6243775;22;20364;-73
2022/02/25 00:27:43;;;;;;;27.67;13.02;;;6.80;99.90;;;;;;6243772;23;20309;-73
2022/02/25 00:30:13;;;;;;;26.73;13.57;;;6.80;99.90;;;;;;6243600;22;20014;-73
2022/02/25 00:32:40;;;;;;;23.80;12.68;;;6.80;99.90;;;;;;6243648;22;19996;-73
2022/02/25 00:35:07;;;;;;;25.25;12.63;;;6.80;99.90;;;;;;6241945;23;20008;-73
2022/02/25 00:37:32;;;;;;;22.17;11.60;;;6.80;99.90;;;;;;6243942;22;19996;-73
2022/02/25 00:39:58;;;;;;;20.38;11.50;;;6.80;99.90;;;;;;6244254;23;20386;-73
2022/02/25 00:42:24;;;;;;;21.83;11.07;;;6.70;99.90;;;;;;6245660;23;20026;-73
2022/02/25 00:44:50;;;;;;;23.27;11.57;;;6.80;99.90;;;;;;6245730;22;20000;-73
2022/02/25 00:47:16;;;;;;;22.08;10.77;;;6.70;99.90;;;;;;6245584;23;20012;-72
2022/02/25 00:49:41;;;;;;;23.20;10.93;;;6.70;99.90;;;;;;6245490;22;20043;-72
2022/02/25 00:52:07;;;;;;;21.75;10.93;;;6.70;99.90;;;;;;6245762;23;20003;-72
2022/02/25 00:54:33;;;;;;;21.88;10.43;;;6.70;99.90;;;;;;6245569;23;20000;-72
2022/02/25 00:56:59;;;;;;;20.10;10.57;;;6.70;99.90;;;;;;6245523;22;20004;-72
2022/02/25 00:59:25;;;;;;;24.02;10.70;;;6.70;99.90;;;;;;6245385;23;20008;-72
2022/02/25 01:01:51;;;;;;;21.90;10.40;;;6.70;99.90;;;;;;6243861;23;20431;-72
2022/02/25 01:04:16;;;;;;;19.73;9.60;;;6.70;99.90;;;;;;6243842;23;20086;-72
2022/02/25 01:06:43;;;;;;;22.77;11.25;;;6.70;99.90;;;;;;6245664;22;20430;-72
2022/02/25 01:09:11;;;;;;;20.67;11.27;;;6.70;99.90;;;;;;6245334;22;20343;-72
2022/02/25 01:11:37;;;;;;;22.42;11.25;;;6.70;99.90;;;;;;6243867;23;20007;-73
2022/02/25 01:14:03;;;;;;;19.17;9.70;;;6.70;99.90;;;;;;6243841;23;20055;-72
2022/02/25 01:16:29;;;;;;;23.60;11.68;;;6.70;99.90;;;;;;6243421;23;19996;-72
2022/02/25 01:18:54;;;;;;;27.02;12.60;;;6.70;99.90;;;;;;6243541;23;20091;-73
2022/02/25 01:21:20;;;;;;;23.92;11.95;;;6.70;99.90;;;;;;6245266;23;20004;-72
2022/02/25 01:23:46;;;;;;;28.00;12.45;;;6.70;99.90;;;;;;6245317;22;20026;-73
2022/02/25 01:26:11;;;;;;;20.98;12.68;;;6.80;99.90;;;;;;6245495;23;20008;-72
2022/02/25 01:28:37;;;;;;;29.10;13.27;;;6.80;99.90;;;;;;6243402;23;20022;-72
2022/02/25 01:31:03;;;;;;;24.13;12.80;;;6.80;99.90;;;;;;6243524;23;20063;-73
2022/02/25 01:33:29;;;;;;;23.17;12.15;;;6.70;99.90;;;;;;6245135;22;19996;-72
2022/02/25 01:35:55;;;;;;;24.45;12.80;;;6.70;99.90;;;;;;6245224;22;20379;-72
2022/02/25 01:38:21;;;;;;;29.60;13.80;;;6.60;99.90;;;;;;6243439;23;20000;-72
2022/02/25 01:40:49;;;;;;;26.80;12.35;;;6.60;99.90;;;;;;6245161;22;20391;-73
2022/02/25 01:43:14;;;;;;;27.60;14.55;;;6.60;99.90;;;;;;6245112;22;20003;-72
2022/02/25 01:45:40;;;;;;;28.85;14.13;;;6.70;99.90;;;;;;6243345;23;20008;-73
2022/02/25 01:48:06;;;;;;;32.75;15.80;;;6.70;99.90;;;;;;6245225;22;19997;-72
2022/02/25 01:50:32;;;;;;;31.23;15.93;;;6.70;99.90;;;;;;6242889;23;20011;-72
2022/02/25 01:53:04;;;;;;;29.67;16.33;;;6.70;99.90;;;;;;6243320;23;20004;-72
2022/02/25 01:55:32;;;;;;;32.30;17.27;;;6.70;99.90;;;;;;6245207;22;20030;-73
2022/02/25 01:57:59;;;;;;;33.05;17.13;;;6.80;99.90;;;;;;6243508;23;20000;-73
2022/02/25 02:00:25;;;;;;;32.30;16.58;;;6.80;99.90;;;;;;6244923;22;20470;-72
2022/02/25 02:02:51;;;;;;;29.25;15.55;;;6.80;99.90;;;;;;6243260;23;20004;-72
2022/02/25 02:05:17;;;;;;;32.08;16.85;;;6.80;99.90;;;;;;6244988;22;20066;-72
2022/02/25 02:07:43;;;;;;;35.33;17.02;;;6.90;99.90;;;;;;6244864;22;20024;-73
2022/02/25 02:10:10;;;;;;;33.47;16.88;;;6.80;99.90;;;;;;6243021;23;20203;-73
2022/02/25 02:12:35;;;;;;;30.10;16.55;;;6.80;99.90;;;;;;6244917;22;20001;-73
2022/02/25 02:15:04;;;;;;;35.30;18.35;;;6.70;99.90;;;;;;6244829;23;20028;-72
2022/02/25 02:17:31;;;;;;;33.70;17.23;;;6.70;99.90;;;;;;6243205;23;20008;-72
2022/02/25 02:19:56;;;;;;;32.20;17.02;;;6.70;99.90;;;;;;6244984;22;20004;-73
2022/02/25 02:22:26;;;;;;;36.03;18.42;;;6.70;99.90;;;;;;6244746;22;20321;-73
2022/02/25 02:24:52;;;;;;;31.75;16.30;;;6.70;99.90;;;;;;6244820;22;20010;-72
2022/02/25 02:27:17;;;;;;;37.63;18.83;;;6.60;99.90;;;;;;6244382;23;20008;-72
2022/02/25 02:29:44;;;;;;;34.20;18.48;;;6.70;99.90;;;;;;6244705;22;20008;-73
2022/02/25 02:32:11;;;;;;;35.10;19.38;;;6.70;99.90;;;;;;6244850;22;20027;-73
2022/02/25 02:34:38;;;;;;;36.25;18.65;;;6.70;99.90;;;;;;6244957;22;20420;-73
2022/02/25 02:37:07;;;;;;;35.28;18.63;;;6.60;99.90;;;;;;6245648;22;20003;-73
2022/02/25 02:39:34;;;;;;;31.95;17.15;;;6.60;99.90;;;;;;6244304;22;20000;-72
2022/02/25 02:42:00;;;;;;;36.05;17.92;;;6.60;99.90;;;;;;6245606;22;20442;-73
2022/02/25 02:44:25;;;;;;;35.50;17.20;;;6.60;99.90;;;;;;6244672;23;20004;-72
2022/02/25 02:46:51;;;;;;;32.42;18.50;;;6.60;99.90;;;;;;6246384;23;20004;-72
2022/02/25 02:49:17;;;;;;;32.88;17.90;;;6.70;99.90;;;;;;6244562;23;20012;-72
2022/02/25 02:51:42;;;;;;;32.53;18.23;;;6.70;99.90;;;;;;6246160;23;20386;-72
2022/02/25 02:54:09;;;;;;;30.92;17.38;;;6.70;99.90;;;;;;6246204;22;20328;-72
2022/02/25 02:56:36;;;;;;;33.65;17.45;;;6.70;99.90;;;;;;6245982;22;20385;-73
2022/02/25 02:59:02;;;;;;;34.58;18.45;;;6.70;99.90;;;;;;6243217;23;20004;-72
2022/02/25 03:01:32;;;;;;;31.23;17.05;;;6.60;99.90;;;;;;6244859;23;20062;-72
2022/02/25 03:03:58;;;;;;;34.70;17.30;;;6.40;99.90;;;;;;6245004;22;20439;-73
2022/02/25 03:06:26;;;;;;;31.20;17.30;;;6.40;99.90;;;;;;6244983;22;20055;-72
2022/02/25 03:08:53;;;;;;;30.17;16.73;;;6.40;99.90;;;;;;6244172;22;20004;-72
2022/02/25 03:11:19;;;;;;;28.38;16.40;;;6.50;99.90;;;;;;6243191;23;20003;-72
2022/02/25 03:13:45;;;;;;;32.97;17.08;;;6.40;99.90;;;;;;6244144;23;20423;-72
2022/02/25 03:16:10;;;;;;;33.50;16.83;;;6.50;99.90;;;;;;6244290;22;20000;-73
2022/02/25 03:18:36;;;;;;;35.63;18.15;;;6.40;99.90;;;;;;6244439;22;20050;-73
2022/02/25 03:21:02;;;;;;;32.92;17.25;;;6.40;99.90;;;;;;6244216;22;20007;-72
2022/02/25 03:23:28;;;;;;;39.15;17.92;;;6.40;99.90;;;;;;6244315;22;20000;-72
2022/02/25 03:25:53;;;;;;;32.38;16.63;;;6.40;99.90;;;;;;6242856;23;20043;-72
2022/02/25 03:28:19;;;;;;;29.15;16.05;;;6.40;99.90;;;;;;6243906;23;20098;-72
2022/02/25 03:30:45;;;;;;;30.30;16.05;;;6.40;99.90;;;;;;6242906;22;20071;-73
2022/02/25 03:33:11;;;;;;;29.60;15.45;;;6.50;99.90;;;;;;6242169;23;20332;-73
2022/02/25 03:35:38;;;;;;;32.55;16.50;;;6.50;99.90;;;;;;6241949;23;20032;-72
2022/02/25 03:38:04;;;;;;;31.13;16.85;;;6.50;99.90;;;;;;6242510;23;20074;-72
2022/02/25 03:40:29;;;;;;;31.17;16.15;;;6.50;99.90;;;;;;6244201;22;20423;-73
2022/02/25 03:42:55;;;;;;;32.55;16.55;;;6.40;99.90;;;;;;6243170;23;20007;-73
2022/02/25 03:45:22;;;;;;;25.25;14.93;;;6.40;99.90;;;;;;6244112;22;20004;-72
2022/02/25 03:47:48;;;;;;;32.45;16.60;;;6.40;99.90;;;;;;6243926;22;20073;-72
2022/02/25 03:50:14;;;;;;;27.50;15.85;;;6.40;99.90;;;;;;6244049;22;20459;-73
2022/02/25 03:52:40;;;;;;;33.30;17.33;;;6.30;99.90;;;;;;6244402;23;20078;-72
2022/02/25 03:55:07;;;;;;;36.65;18.17;;;6.30;99.90;;;;;;6245101;22;20046;-72
2022/02/25 03:57:33;;;;;;;31.38;16.15;;;6.20;99.90;;;;;;6244648;22;20000;-73
2022/02/25 03:59:59;;;;;;;31.02;16.83;;;6.20;99.90;;;;;;6245290;22;20083;-72
2022/02/25 04:02:25;;;;;;;34.28;16.45;;;6.20;99.90;;;;;;6243478;23;20053;-72
2022/02/25 04:04:50;;;;;;;28.67;15.90;;;6.20;99.90;;;;;;6244267;22;20075;-72
2022/02/25 04:07:17;;;;;;;34.72;16.55;;;6.10;99.90;;;;;;6243878;22;20332;-73
2022/02/25 04:09:43;;;;;;;29.35;17.15;;;6.10;99.90;;;;;;6243614;22;20008;-73
2022/02/25 04:12:09;;;;;;;34.13;17.60;;;6.00;99.90;;;;;;6243951;22;20020;-73
2022/02/25 04:14:36;;;;;;;36.40;17.90;;;6.00;99.90;;;;;;6246049;22;19996;-73
2022/02/25 04:17:03;;;;;;;32.88;16.40;;;6.00;99.90;;;;;;6246231;22;19996;-73
2022/02/25 04:19:30;;;;;;;29.48;15.75;;;6.10;99.90;;;;;;6246079;22;20008;-73
2022/02/25 04:21:55;;;;;;;33.05;18.05;;;6.00;99.90;;;;;;6245930;22;20437;-72
2022/02/25 04:24:21;;;;;;;33.53;16.98;;;5.90;99.90;;;;;;6245904;23;20015;-73
2022/02/25 04:26:47;;;;;;;35.38;16.33;;;5.90;99.90;;;;;;6245975;22;20387;-73
2022/02/25 04:29:13;;;;;;;29.85;16.10;;;6.00;99.90;;;;;;6245733;22;20079;-72
2022/02/25 04:31:39;;;;;;;29.88;16.02;;;6.00;99.90;;;;;;6244254;23;20095;-72
2022/02/25 04:34:05;;;;;;;29.83;15.75;;;6.10;99.90;;;;;;6244081;23;20027;-73
2022/02/25 04:36:33;;;;;;;30.00;15.73;;;6.10;99.90;;;;;;6245701;23;20103;-72
2022/02/25 04:38:59;;;;;;;30.90;15.27;;;6.00;99.90;;;;;;6244063;23;20011;-72
2022/02/25 04:41:25;;;;;;;33.35;16.73;;;6.00;99.90;;;;;;6246412;23;20000;-73
2022/02/25 04:43:50;;;;;;;31.88;16.02;;;5.90;99.90;;;;;;6246444;23;20011;-73
2022/02/25 04:46:18;;;;;;;29.55;15.50;;;5.90;99.90;;;;;;6244775;23;20428;-72
2022/02/25 04:48:44;;;;;;;27.90;15.55;;;5.90;99.90;;;;;;6244483;23;20008;-73
2022/02/25 04:51:11;;;;;;;29.35;15.13;;;5.90;99.90;;;;;;6246589;22;19996;-73
2022/02/25 04:53:37;;;;;;;34.30;16.80;;;6.00;99.90;;;;;;6246846;22;20023;-72
2022/02/25 04:56:05;;;;;;;28.55;15.35;;;5.80;99.90;;;;;;6245928;23;20003;-73
2022/02/25 04:58:33;;;;;;;26.38;14.98;;;5.70;99.90;;;;;;6245959;22;20004;-73
2022/02/25 05:01:00;;;;;;;35.05;16.88;;;5.60;99.90;;;;;;6244252;23;20301;-73
2022/02/25 05:03:26;;;;;;;27.25;15.50;;;5.50;99.90;;;;;;6244289;23;20000;-73
2022/02/25 05:05:52;;;;;;;33.42;16.45;;;5.40;99.90;;;;;;6245887;22;19992;-73
2022/02/25 05:08:17;;;;;;;27.38;15.98;;;5.40;99.90;;;;;;6245613;23;20390;-72
2022/02/25 05:10:43;;;;;;;32.42;16.13;;;5.40;99.90;;;;;;6245551;22;20004;-72
2022/02/25 05:13:09;;;;;;;33.85;17.58;;;5.40;99.90;;;;;;6243980;23;20332;-73
2022/02/25 05:21:03;;;;;;;30.58;16.67;;;5.30;99.90;;;;;;6245608;23;20138;-73
2022/02/25 05:23:28;;;;;;;34.13;16.50;;;5.30;99.90;;;;;;6245411;22;20035;-73
2022/02/25 05:25:54;;;;;;;30.73;16.20;;;5.30;99.90;;;;;;6244842;23;19996;-73
2022/02/25 05:28:20;;;;;;;33.20;16.35;;;5.20;99.90;;;;;;6243769;23;20004;-73
2022/02/25 05:30:46;;;;;;;30.95;15.00;;;5.30;99.90;;;;;;6245297;22;20000;-73
2022/02/25 05:33:12;;;;;;;28.02;14.70;;;5.30;99.90;;;;;;6245284;23;19997;-73
2022/02/25 05:35:38;;;;;;;31.92;14.77;;;5.30;99.90;;;;;;6245398;22;20007;-72
2022/02/25 05:38:05;;;;;;;27.23;14.35;;;5.30;99.90;;;;;;6244941;22;20000;-73
2022/02/25 05:40:31;;;;;;;26.67;13.65;;;5.30;99.90;;;;;;6242552;23;20004;-73
2022/02/25 05:42:56;;;;;;;27.90;13.20;;;5.40;99.90;;;;;;6244072;22;20010;-73
2022/02/25 05:45:22;;;;;;;29.50;13.55;;;5.50;99.90;;;;;;6244009;23;20008;-73
2022/02/25 05:47:48;;;;;;;23.50;13.45;;;5.50;99.90;;;;;;6242619;23;20008;-72
2022/02/25 05:50:17;;;;;;;30.23;14.85;;;5.50;99.90;;;;;;6243779;22;20000;-73
2022/02/25 05:52:45;;;;;;;29.15;15.63;;;5.40;99.90;;;;;;6242117;23;20008;-73
2022/02/25 05:55:11;;;;;;;28.42;14.63;;;5.40;99.90;;;;;;6243957;22;20029;-73
2022/02/25 05:57:37;;;;;;;27.20;13.50;;;5.50;99.90;;;;;;6242511;23;20028;-73
2022/02/25 06:00:06;;;;;;;27.40;12.93;;;5.50;99.90;;;;;;6243682;22;20001;-73
2022/02/25 06:02:33;;;;;;;23.35;13.10;;;5.40;99.90;;;;;;6244438;22;20007;-73
2022/02/25 06:04:59;;;;;;;22.83;12.93;;;5.40;99.90;;;;;;6245303;22;20079;-73
2022/02/25 06:07:24;;;;;;;23.00;11.88;;;5.30;99.90;;;;;;6243292;23;20042;-73
2022/02/25 06:09:50;;;;;;;28.08;14.13;;;5.40;99.90;;;;;;6243032;23;20351;-73
2022/02/25 06:12:16;;;;;;;23.73;12.50;;;5.40;99.90;;;;;;6243547;23;20005;-73
2022/02/25 06:14:42;;;;;;;25.40;13.80;;;5.40;99.90;;;;;;6244717;22;20075;-72
2022/02/25 06:17:08;;;;;;;27.75;12.93;;;5.50;99.90;;;;;;6244647;23;20007;-73
2022/02/25 06:19:34;;;;;;;25.23;12.88;;;5.40;99.90;;;;;;6241850;23;20343;-73
2022/02/25 06:22:00;;;;;;;23.85;12.60;;;5.40;99.90;;;;;;6243061;23;20075;-73
2022/02/25 06:24:25;;;;;;;22.15;11.82;;;5.40;99.90;;;;;;6241436;23;20028;-73
2022/02/25 06:26:51;;;;;;;20.45;11.75;;;5.40;99.90;;;;;;6242033;23;20005;-81
2022/02/25 06:29:17;;;;;;;22.15;11.77;;;5.40;99.90;;;;;;6241732;23;20008;-81
2022/02/25 06:31:43;;;;;;;22.38;12.38;;;5.40;99.90;;;;;;6242829;23;20000;-81
2022/02/25 06:34:09;;;;;;;22.67;12.43;;;5.50;99.90;;;;;;6243755;23;20032;-81
2022/02/25 06:36:35;;;;;;;23.00;12.23;;;5.40;99.90;;;;;;6243722;23;20000;-80
2022/02/25 06:39:01;;;;;;;22.85;12.10;;;5.50;99.90;;;;;;6243239;22;20030;-81
2022/02/25 06:41:26;;;;;;;24.33;10.95;;;5.50;99.90;;;;;;6243062;23;20004;-81
2022/02/25 06:43:52;;;;;;;18.75;9.80;;;5.50;99.90;;;;;;6243715;22;20412;-80
2022/02/25 06:46:18;;;;;;;20.83;11.48;;;5.60;99.90;;;;;;6244207;22;20000;-80
2022/02/25 06:48:44;;;;;;;23.08;10.65;;;5.60;99.90;;;;;;6244221;22;20028;-80
2022/02/25 06:51:11;;;;;;;19.88;10.52;;;5.60;99.90;;;;;;6243189;23;20089;-80
2022/02/25 06:53:37;;;;;;;17.88;10.25;;;5.70;99.90;;;;;;6245099;22;20004;-79
2022/02/25 06:56:04;;;;;;;17.48;10.95;;;5.70;99.90;;;;;;6245576;22;20424;-80
2022/02/25 06:58:30;;;;;;;20.38;10.68;;;5.80;99.90;;;;;;6244974;22;20000;-80
2022/02/25 07:00:56;;;;;;;19.67;10.25;;;5.80;99.90;;;;;;6245218;22;20004;-80
2022/02/25 07:03:21;;;;;;;23.90;11.40;;;5.90;99.90;;;;;;6245222;22;20457;-81
2022/02/25 07:05:47;;;;;;;21.60;11.02;;;5.90;99.90;;;;;;6245195;22;20027;-80
2022/02/25 07:08:13;;;;;;;20.55;10.77;;;5.90;99.90;;;;;;6244981;23;19996;-81
2022/02/25 07:10:40;;;;;;;25.92;13.40;;;6.00;99.90;;;;;;6245572;23;20004;-81
2022/02/25 07:13:08;;;;;;;21.92;10.93;;;6.00;99.90;;;;;;6245534;22;20001;-81
2022/02/25 07:15:34;;;;;;;25.50;12.10;;;6.00;99.90;;;;;;6244983;22;20027;-81
2022/02/25 07:18:00;;;;;;;26.95;12.30;;;6.10;99.90;;;;;;6243766;23;20004;-82
2022/02/25 07:20:26;;;;;;;21.23;11.02;;;6.10;99.90;;;;;;6243623;23;20054;-80
2022/02/25 07:22:52;;;;;;;25.30;11.95;;;6.20;99.90;;;;;;6244521;22;20027;-80
2022/02/25 07:25:18;;;;;;;28.65;13.13;;;6.20;99.90;;;;;;6244926;22;20375;-80
2022/02/25 07:27:45;;;;;;;21.98;12.27;;;6.30;99.90;;;;;;6243005;23;20031;-79
2022/02/25 07:30:12;;;;;;;22.83;12.13;;;6.30;99.90;;;;;;6244456;22;20035;-81
2022/02/25 07:32:39;;;;;;;22.63;12.38;;;6.30;99.90;;;;;;6244807;22;20011;-81
2022/02/25 07:35:07;;;;;;;25.27;13.13;;;6.40;99.90;;;;;;6242966;23;20083;-81
2022/02/25 07:37:33;;;;;;;26.27;12.93;;;6.40;99.90;;;;;;6244958;22;20328;-81
2022/02/25 07:39:59;;;;;;;24.80;12.70;;;6.50;99.90;;;;;;6243201;23;20008;-80
2022/02/25 07:42:25;;;;;;;25.50;14.10;;;6.50;99.90;;;;;;6245125;23;20035;-81
2022/02/25 07:44:51;;;;;;;27.73;12.30;;;6.60;99.90;;;;;;6245909;22;20422;-80
2022/02/25 07:47:19;;;;;;;25.33;12.35;;;6.70;99.90;;;;;;6245753;22;20003;-79
2022/02/25 07:49:46;;;;;;;21.35;11.18;;;6.70;99.90;;;;;;6244619;23;20004;-80
2022/02/25 07:52:12;;;;;;;24.88;12.02;;;6.80;99.90;;;;;;6244559;23;20331;-81
2022/02/25 07:54:38;;;;;;;23.23;11.85;;;6.80;99.90;;;;;;6244316;23;20083;-80
2022/02/25 07:57:04;;;;;;;24.15;13.20;;;6.90;99.90;;;;;;6246004;23;20034;-81
2022/02/25 07:59:30;;;;;;;23.92;12.70;;;6.90;99.90;;;;;;6246048;22;20075;-80
2022/02/25 08:01:56;;;;;;;35.20;18.33;;;7.00;99.90;;;;;;6246196;22;20420;-80
2022/02/25 08:04:22;;;;;;;38.80;19.90;;;7.00;99.90;;;;;;6244445;23;20019;-80
2022/02/25 08:06:48;;;;;;;49.38;20.95;;;7.10;99.90;;;;;;6246267;22;20019;-80
2022/02/25 08:09:14;;;;;;;43.95;21.45;;;7.10;99.90;;;;;;6245626;22;20087;-80
2022/02/25 08:11:40;;;;;;;41.25;22.40;;;7.20;99.90;;;;;;6246100;22;20023;-80
2022/02/25 08:14:06;;;;;;;50.08;24.48;;;7.20;99.90;;;;;;6244282;23;20392;-78
2022/02/25 08:16:32;;;;;;;48.78;23.95;;;7.20;99.90;;;;;;6244152;23;20032;-78
2022/02/25 08:18:57;;;;;;;47.63;23.85;;;7.20;99.90;;;;;;6246043;22;20095;-78
2022/02/25 08:21:23;;;;;;;49.58;24.63;;;7.30;99.90;;;;;;6245781;23;20142;-78
2022/02/25 08:23:49;;;;;;;49.40;24.67;;;7.30;99.90;;;;;;6245776;23;20004;-78
2022/02/25 08:26:15;;;;;;;46.55;23.63;;;7.30;99.90;;;;;;6245659;22;20010;-77
2022/02/25 08:28:40;;;;;;;44.80;24.05;;;7.40;99.90;;;;;;6243796;23;20015;-78
2022/02/25 08:31:11;;;;;;;49.60;23.92;;;7.40;99.90;;;;;;6243572;23;20483;-78
2022/02/25 08:33:40;;;;;;;51.38;25.77;;;7.40;99.90;;;;;;6245206;22;20000;-78
2022/02/25 08:36:06;;;;;;;47.65;25.58;;;7.50;99.90;;;;;;6245280;22;20000;-78
2022/02/25 08:38:32;;;;;;;48.03;25.15;;;7.50;99.90;;;;;;6245125;22;19997;-78
2022/02/25 08:40:58;;;;;;;45.60;24.20;;;7.50;99.90;;;;;;6245431;22;20007;-78
2022/02/25 08:43:24;;;;;;;47.10;24.23;;;7.60;99.90;;;;;;6244005;23;20001;-78
2022/02/25 08:45:50;;;;;;;48.75;23.27;;;7.60;99.90;;;;;;6245332;22;20508;-78
2022/02/25 08:48:16;;;;;;;50.83;24.42;;;7.60;99.90;;;;;;6244944;22;20079;-78
2022/02/25 08:50:43;;;;;;;47.22;23.98;;;7.60;99.90;;;;;;6244870;23;20036;-77
2022/02/25 08:53:10;;;;;;;48.08;24.23;;;7.70;99.90;;;;;;6243458;23;20020;-77
2022/02/25 08:55:36;;;;;;;44.13;24.02;;;7.70;99.90;;;;;;6245210;22;20338;-78
2022/02/25 08:58:02;;;;;;;49.92;25.20;;;7.70;99.90;;;;;;6245209;22;20525;-78
2022/02/25 09:00:29;;;;;;;44.22;23.83;;;7.80;99.90;;;;;;6246029;22;20428;-78
2022/02/25 09:02:55;;;;;;;50.97;25.75;;;7.80;99.90;;;;;;6244962;22;20527;-79
2022/02/25 09:05:22;;;;;;;42.90;23.48;;;7.90;99.90;;;;;;6244662;22;20080;-78
2022/02/25 09:07:49;;;;;;;57.17;26.20;;;7.90;99.90;;;;;;6243964;22;20520;-78
2022/02/25 09:10:15;;;;;;;52.38;25.88;;;7.90;99.90;;;;;;6242116;23;20459;-78
2022/02/25 09:12:42;;;;;;;55.15;26.05;;;8.00;99.90;;;;;;6244449;23;20000;-80
2022/02/25 09:15:10;;;;;;;51.05;25.13;;;8.10;99.90;;;;;;6243528;22;20004;-80
2022/02/25 09:17:37;;;;;;;54.90;25.38;;;8.20;99.90;;;;;;6242388;23;20105;-81
2022/02/25 09:20:05;;;;;;;51.75;26.58;;;8.30;99.90;;;;;;6244343;22;20085;-80
2022/02/25 09:22:30;;;;;;;51.08;26.20;;;8.40;99.90;;;;;;6243370;22;20023;-81
2022/02/25 09:24:57;;;;;;;48.22;25.20;;;8.40;99.90;;;;;;6244267;23;20026;-79
2022/02/25 09:27:24;;;;;;;50.33;26.25;;;8.50;99.90;;;;;;6243939;22;20130;-81
2022/02/25 09:29:50;;;;;;;51.60;26.02;;;8.50;99.90;;;;;;6241197;23;20004;-81
2022/02/25 09:32:15;;;;;;;51.28;23.17;;;8.60;99.90;;;;;;6243947;22;20007;-81
2022/02/25 09:34:41;;;;;;;47.88;22.88;;;8.60;99.90;;;;;;6242171;22;20000;-81
2022/02/25 09:37:07;;;;;;;43.00;20.90;;;8.80;99.90;;;;;;6242591;23;20001;-81
2022/02/25 09:39:33;;;;;;;49.65;20.67;;;8.90;99.90;;;;;;6242310;22;20007;-80
2022/02/25 09:41:59;;;;;;;39.15;18.58;;;9.00;99.90;;;;;;6242692;22;20432;-81
2022/02/25 09:44:26;;;;;;;40.25;19.05;;;9.10;99.90;;;;;;6243136;22;20000;-81
2022/02/25 09:46:52;;;;;;;42.78;18.80;;;9.20;99.90;;;;;;6241004;23;20462;-80
2022/02/25 09:49:19;;;;;;;45.08;20.55;;;9.30;99.90;;;;;;6243377;22;20032;-80
2022/02/25 09:51:46;;;;;;;45.88;19.70;;;9.50;99.90;;;;;;6243262;22;20004;-80
2022/02/25 09:54:18;;;;;;;49.75;21.98;;;9.50;99.90;;;;;;6242924;22;20043;-80
2022/02/25 09:56:46;;;;;;;45.17;21.85;;;9.60;99.90;;;;;;6242857;22;19996;-80
2022/02/25 09:59:13;;;;;;;50.03;21.40;;;9.60;99.90;;;;;;6244067;22;20000;-80
2022/02/25 10:01:38;;;;;;;46.40;22.08;;;9.70;99.90;;;;;;6243422;22;20004;-81
2022/02/25 10:04:22;;;;;;;48.70;21.80;;;9.80;99.90;;;;;;6243890;22;20494;-80
2022/02/25 10:06:48;;;;;;;47.22;21.02;;;9.80;99.90;;;;;;6242124;22;20032;-79
2022/02/25 10:09:26;;;;;;;55.47;22.83;;;9.90;99.90;;;;;;6242161;23;20017;-81
2022/02/25 10:12:19;;;;;;;51.92;22.33;;;9.80;99.90;;;;;;6243432;22;20447;-82
2022/02/25 10:14:47;;;;;;;60.83;24.85;;;9.90;99.90;;;;;;6239359;22;20007;-80
2022/02/25 10:17:18;;;;;;;50.65;23.45;;;9.80;99.90;;;;;;6246375;22;19996;-81
2022/02/25 10:19:49;;;;;;;58.20;25.55;;;9.80;99.90;;;;;;6245744;22;20008;-79
2022/02/25 10:22:30;;;;;;;66.70;27.13;;;9.80;99.90;;;;;;6246144;22;20050;-81
2022/02/25 10:25:01;;;;;;;63.88;28.98;;;9.90;99.90;;;;;;6246354;22;20073;-81
2022/02/25 10:27:33;;;;;;;62.58;27.35;;;10.00;99.90;;;;;;6246507;22;20000;-81
2022/02/25 10:30:13;;;;;;;57.70;26.75;;;10.10;99.90;;;;;;6245918;22;20000;-81
2022/02/25 10:32:42;;;;;;;63.22;28.92;;;10.10;99.90;;;;;;6244476;23;20336;-81
2022/02/25 10:35:31;;;;;;;61.55;27.27;;;10.10;99.90;;;;;;6246169;22;20000;-81
2022/02/25 10:38:18;;;;;;;58.30;27.55;;;10.20;99.90;;;;;;6244596;23;20008;-81
2022/02/25 10:40:48;;;;;;;55.20;25.92;;;10.10;99.90;;;;;;6240700;22;20000;-80
2022/02/25 10:43:17;;;;;;;62.50;27.33;;;10.30;99.90;;;;;;6242990;22;20087;-79
2022/02/25 10:45:47;;;;;;;55.20;27.55;;;10.30;99.90;;;;;;6242787;22;20004;-80
2022/02/25 10:48:16;;;;;;;57.67;27.90;;;10.40;99.90;;;;;;6241640;22;20190;-80
2022/02/25 10:50:46;;;;;;;61.63;28.80;;;10.40;99.90;;;;;;6241953;22;20004;-79
2022/02/25 10:53:13;;;;;;;61.72;28.08;;;10.50;99.90;;;;;;6242426;22;19996;-80
2022/02/25 10:55:40;;;;;;;59.78;27.88;;;10.60;99.90;;;;;;6241973;22;20007;-81
2022/02/25 10:58:06;;;;;;;62.15;30.55;;;10.50;99.90;;;;;;6241088;22;20459;-80
2022/02/25 11:00:32;;;;;;;63.58;29.40;;;10.60;99.90;;;;;;6243715;22;20042;-82
2022/02/25 11:02:59;;;;;;;63.72;29.92;;;10.60;99.90;;;;;;6246294;22;20011;-82
2022/02/25 11:05:35;;;;;;;61.85;28.98;;;10.70;99.90;;;;;;6240432;23;20008;-82
2022/02/25 11:08:05;;;;;;;61.30;29.15;;;10.90;99.90;;;;;;6243137;22;20008;-82
2022/02/25 11:10:33;;;;;;;67.55;31.42;;;10.90;99.90;;;;;;6242381;22;20094;-82
2022/02/25 11:13:04;;;;;;;60.85;30.05;;;11.00;99.90;;;;;;6241640;22;20001;-81
2022/02/25 11:15:32;;;;;;;60.08;30.10;;;11.00;99.90;;;;;;6237588;23;20004;-72
2022/02/25 11:17:58;;;;;;;59.67;28.73;;;11.20;99.20;;;;;;6236838;23;20008;-72
2022/02/25 11:20:28;;;;;;;54.55;28.23;;;11.10;99.70;;;;;;6238040;22;20004;-72
2022/02/25 11:22:59;;;;;;;57.38;29.40;;;11.30;99.90;;;;;;6237121;23;20059;-72
2022/02/25 11:25:26;;;;;;;60.75;29.88;;;11.40;99.90;;;;;;6235352;23;20004;-72
2022/02/25 11:27:52;;;;;;;63.30;29.73;;;11.40;98.80;;;;;;6237407;22;20004;-72
2022/02/25 11:30:44;;;;;;;63.88;29.33;;;11.40;98.60;;;;;;6239610;22;20007;-72
2022/02/25 11:33:13;;;;;;;53.00;26.98;;;11.40;99.10;;;;;;6223635;23;20008;-72
2022/02/25 11:36:13;;;;;;;61.00;30.85;;;11.50;98.30;;;;;;6241496;23;20018;-72
2022/02/25 11:38:46;;;;;;;61.88;30.17;;;11.50;99.60;;;;;;6241619;23;20011;-72
2022/02/25 11:41:22;;;;;;;57.47;29.10;;;11.60;99.90;;;;;;6242175;22;20001;-72
2022/02/25 11:43:55;;;;;;;56.67;28.20;;;11.70;99.60;;;;;;6242453;22;19996;-72
2022/02/25 11:46:33;;;;;;;61.53;30.20;;;11.80;99.40;;;;;;6237190;23;20248;-72
2022/02/25 11:49:02;;;;;;;60.97;29.75;;;11.90;98.70;;;;;;6239230;22;20000;-72
2022/02/25 11:51:33;;;;;;;62.38;28.38;;;11.80;97.90;;;;;;6238556;22;20439;-72
2022/02/25 11:54:46;;;;;;;61.67;29.98;;;11.90;97.70;;;;;;6238280;23;20447;-72
2022/02/25 11:57:12;;;;;;;62.40;30.02;;;12.00;98.70;;;;;;6090907;23;20006;-72
2022/02/25 11:59:38;;;;;;;49.83;28.13;;;12.00;98.10;;;;;;6116990;23;20016;-72
2022/02/25 12:02:20;;;;;;;55.78;28.80;;;12.10;98.20;;;;;;6165957;23;20008;-72
2022/02/25 12:04:54;;;;;;;57.92;29.92;;;12.20;98.30;;;;;;6239330;22;20078;-72
2022/02/25 12:07:31;;;;;;;61.55;30.38;;;12.10;96.60;;;;;;6237981;23;20027;-72
2022/02/25 12:10:23;;;;;;;55.67;29.83;;;12.10;97.50;;;;;;6238212;23;20012;-72
2022/02/25 12:13:03;;;;;;;58.73;31.13;;;12.20;97.30;;;;;;6237633;23;20004;-73
2022/02/25 12:15:34;;;;;;;56.17;30.80;;;12.10;96.60;;;;;;6242714;22;20226;-72
2022/02/25 12:18:02;;;;;;;67.80;33.17;;;12.10;96.20;;;;;;6243689;23;20335;-72
2022/02/25 12:20:38;;;;;;;61.03;31.20;;;12.20;96.80;;;;;;6243813;22;20103;-72
2022/02/25 12:23:09;;;;;;;62.78;31.35;;;12.30;96.60;;;;;;6244264;22;20004;-72
2022/02/25 12:25:41;;;;;;;68.80;34.03;;;12.40;96.00;;;;;;6243512;23;20038;-72
2022/02/25 12:28:28;;;;;;;68.35;31.58;;;12.40;95.60;;;;;;6243486;23;20714;-72
2022/02/25 12:30:58;;;;;;;65.10;33.20;;;12.50;95.50;;;;;;6244620;22;20375;-72
2022/02/25 12:33:26;;;;;;;61.67;32.08;;;12.50;96.10;;;;;;6239893;22;20000;-73
2022/02/25 12:35:56;;;;;;;59.25;30.42;;;12.50;95.90;;;;;;6241511;23;19996;-73
2022/02/25 12:38:23;;;;;;;55.60;30.98;;;12.50;95.90;;;;;;6242283;22;19996;-73
2022/02/25 12:40:50;;;;;;;54.50;31.05;;;12.60;96.40;;;;;;6242299;22;20008;-73
2022/02/25 12:43:17;;;;;;;68.28;32.92;;;12.70;96.60;;;;;;6242340;22;20051;-73